Time;durP1;ratioP1;P1;durP2;ratioP2;P2;SDS_P1;SDS_P2;PMS_P1;PMS_P2;Temp;Humidity;BMP_temperature;BMP_pressure;BME280_temperature;BME280_humidity;BME280_pressure;Samples;Min_cycle;Max_cycle;Signal;HPM_P1;HPM_P2
2022/05/31 00:02:02;;;;;;;6.83;2.50;;;9.80;99.90;;;;;;4192749;28;20792;-79
2022/05/31 00:04:04;;;;;;;4.10;2.37;;;9.80;99.90;;;;;;4187467;28;20217;-79
2022/05/31 00:06:08;;;;;;;8.97;2.60;;;9.80;99.90;;;;;;4188570;28;20253;-78
2022/05/31 00:08:09;;;;;;;5.80;2.57;;;9.70;99.90;;;;;;4194158;28;20226;-79
2022/05/31 00:10:13;;;;;;;4.13;2.50;;;9.70;99.90;;;;;;4173824;28;20207;-77
2022/05/31 00:12:16;;;;;;;6.03;2.30;;;9.60;99.90;;;;;;4194794;28;20206;-78
2022/05/31 00:14:19;;;;;;;3.77;2.40;;;9.70;99.90;;;;;;4195782;28;20206;-78
2022/05/31 00:16:21;;;;;;;4.90;2.57;;;9.60;99.90;;;;;;4194387;22;20231;-81
2022/05/31 00:18:23;;;;;;;8.13;2.67;;;9.60;99.90;;;;;;4163999;28;20212;-80
2022/05/31 00:20:25;;;;;;;5.53;2.40;;;9.60;99.90;;;;;;4153724;28;20219;-81
2022/05/31 00:22:29;;;;;;;5.73;2.70;;;9.60;99.90;;;;;;4152794;28;20785;-81
2022/05/31 00:24:31;;;;;;;4.03;2.90;;;9.60;99.90;;;;;;4162379;28;20215;-81
2022/05/31 00:26:33;;;;;;;5.33;2.93;;;9.60;99.90;;;;;;4154668;28;20238;-81
2022/05/31 00:28:35;;;;;;;5.63;2.73;;;10.00;99.90;;;;;;4156661;28;20223;-80
2022/05/31 00:30:38;;;;;;;4.80;2.70;;;9.70;99.90;;;;;;4162372;28;20199;-81
2022/05/31 00:32:43;;;;;;;5.73;2.77;;;9.60;99.90;;;;;;4156397;28;20217;-81
2022/05/31 00:34:50;;;;;;;3.50;2.60;;;9.60;99.90;;;;;;4158289;28;20223;-81
2022/05/31 00:37:41;;;;;;;4.40;2.67;;;9.70;99.90;;;;;;4156945;28;20418;-81
2022/05/31 00:40:33;;;;;;;7.40;2.57;;;9.70;99.90;;;;;;4157787;28;20302;-81
2022/05/31 00:43:25;;;;;;;6.37;2.40;;;9.70;99.90;;;;;;4155395;28;20208;-81
2022/05/31 00:46:17;;;;;;;4.90;2.70;;;9.70;99.90;;;;;;4163886;28;20224;-81
2022/05/31 00:49:10;;;;;;;6.93;3.10;;;9.70;99.90;;;;;;4151630;28;20305;-81
2022/05/31 00:52:02;;;;;;;6.50;2.60;;;9.70;99.90;;;;;;4151430;28;20596;-81
2022/05/31 00:54:55;;;;;;;4.87;2.60;;;9.70;99.90;;;;;;4159806;28;20211;-81
2022/05/31 00:57:46;;;;;;;5.87;2.93;;;9.70;99.90;;;;;;4153368;28;20331;-81
2022/05/31 01:00:38;;;;;;;7.87;2.63;;;9.80;99.90;;;;;;4158195;28;20631;-81
2022/05/31 01:03:30;;;;;;;6.00;2.97;;;9.80;99.90;;;;;;4156808;28;20454;-81
2022/05/31 01:06:23;;;;;;;7.20;3.00;;;9.80;99.90;;;;;;4155599;28;20274;-81
2022/05/31 01:09:16;;;;;;;4.23;3.07;;;9.80;99.90;;;;;;4160407;28;20952;-81
2022/05/31 01:12:08;;;;;;;7.00;3.10;;;9.70;99.90;;;;;;4152801;28;20277;-81
2022/05/31 01:15:00;;;;;;;6.27;2.90;;;9.70;99.90;;;;;;4154597;28;20211;-81
2022/05/31 01:17:52;;;;;;;4.70;2.57;;;9.70;99.90;;;;;;4166552;28;20500;-81
2022/05/31 01:20:44;;;;;;;6.60;2.90;;;9.80;99.90;;;;;;4170070;28;20210;-81
2022/05/31 01:23:36;;;;;;;6.57;3.13;;;9.80;99.90;;;;;;4176422;28;20871;-81
2022/05/31 01:26:28;;;;;;;6.53;2.77;;;9.80;99.90;;;;;;4174987;28;20210;-81
2022/05/31 01:29:21;;;;;;;6.57;3.03;;;9.80;99.90;;;;;;4173824;28;20245;-81
2022/05/31 01:32:13;;;;;;;4.50;3.00;;;9.70;99.90;;;;;;4174752;28;20604;-81
2022/05/31 01:35:05;;;;;;;7.93;3.13;;;9.70;99.90;;;;;;4172915;28;20207;-81
2022/05/31 01:37:09;;;;;;;5.40;3.37;;;9.60;99.90;;;;;;4171882;28;20227;-79
2022/05/31 01:39:18;;;;;;;10.50;3.57;;;9.60;99.90;;;;;;4162915;28;20467;-79
2022/05/31 01:41:25;;;;;;;7.27;3.43;;;9.60;99.90;;;;;;4166241;28;20225;-80
2022/05/31 01:43:27;;;;;;;5.23;3.17;;;9.50;99.90;;;;;;4168154;28;20218;-79
2022/05/31 01:45:43;;;;;;;5.70;3.17;;;9.50;99.90;;;;;;4169819;28;20463;-79
2022/05/31 01:47:45;;;;;;;4.67;2.93;;;9.60;99.90;;;;;;4167821;28;20219;-79
2022/05/31 01:49:52;;;;;;;6.60;3.10;;;9.50;99.90;;;;;;4156513;28;20235;-79
2022/05/31 01:51:54;;;;;;;6.13;2.97;;;9.50;99.90;;;;;;4170370;28;20230;-79
2022/05/31 01:53:59;;;;;;;6.53;3.20;;;9.40;99.90;;;;;;4172057;28;20210;-80
2022/05/31 01:56:01;;;;;;;5.50;3.13;;;9.40;99.90;;;;;;4154458;28;20265;-80
2022/05/31 01:58:08;;;;;;;4.13;2.93;;;9.40;99.90;;;;;;4172826;28;20217;-80
2022/05/31 02:00:12;;;;;;;6.67;3.10;;;9.40;99.90;;;;;;4157354;28;20207;-79
2022/05/31 02:02:16;;;;;;;5.97;2.87;;;9.40;99.90;;;;;;4158646;28;20217;-79
2022/05/31 02:04:18;;;;;;;10.53;4.10;;;9.40;99.90;;;;;;4160225;28;20460;-79
2022/05/31 02:06:28;;;;;;;6.53;3.10;;;9.40;99.90;;;;;;4162009;28;20736;-79
2022/05/31 02:08:30;;;;;;;5.83;3.20;;;9.30;99.90;;;;;;4146507;28;20577;-79
2022/05/31 02:10:33;;;;;;;5.00;2.80;;;9.40;99.90;;;;;;4173312;28;20271;-79
2022/05/31 02:12:36;;;;;;;6.23;3.37;;;9.30;99.90;;;;;;4153506;28;20255;-79
2022/05/31 02:14:38;;;;;;;5.93;3.27;;;9.30;99.90;;;;;;4176160;28;20203;-79
2022/05/31 02:16:40;;;;;;;6.67;3.33;;;9.30;99.90;;;;;;4157041;28;20485;-79
2022/05/31 02:21:01;;;;;;;6.13;3.13;;;9.20;99.90;;;;;;4171196;28;20841;-79
2022/05/31 02:23:03;;;;;;;5.73;3.00;;;9.20;99.90;;;;;;4170079;28;20218;-79
2022/05/31 02:25:06;;;;;;;7.13;3.30;;;9.20;99.90;;;;;;4156440;28;20450;-80
2022/05/31 02:27:10;;;;;;;7.50;3.20;;;9.20;99.90;;;;;;4173287;28;20571;-80
2022/05/31 02:29:14;;;;;;;5.07;3.10;;;9.20;99.90;;;;;;4156590;28;20489;-80
2022/05/31 02:31:16;;;;;;;7.07;3.40;;;9.10;99.90;;;;;;4168883;28;20294;-80
2022/05/31 02:33:18;;;;;;;6.27;3.13;;;9.10;99.90;;;;;;4166369;28;20457;-80
2022/05/31 02:35:20;;;;;;;5.07;3.10;;;9.10;99.90;;;;;;4171505;28;20472;-80
2022/05/31 02:37:22;;;;;;;7.10;3.80;;;9.10;99.90;;;;;;4169349;28;20450;-80
2022/05/31 02:39:24;;;;;;;8.10;3.20;;;9.00;99.90;;;;;;4156340;28;20461;-80
2022/05/31 02:41:26;;;;;;;4.47;3.10;;;9.00;99.90;;;;;;4176794;28;20637;-80
2022/05/31 02:43:29;;;;;;;5.77;3.50;;;9.00;99.90;;;;;;4178034;28;20481;-80
2022/05/31 02:45:31;;;;;;;6.03;3.20;;;9.00;99.90;;;;;;4177514;28;20455;-80
2022/05/31 02:47:33;;;;;;;5.73;3.70;;;9.00;99.90;;;;;;4160847;28;20838;-80
2022/05/31 02:49:35;;;;;;;6.60;3.30;;;8.90;99.90;;;;;;4162083;28;20544;-80
2022/05/31 02:51:38;;;;;;;6.50;3.37;;;8.90;99.90;;;;;;4177976;28;20556;-80
2022/05/31 02:53:40;;;;;;;10.33;3.90;;;8.90;99.90;;;;;;4179893;28;20479;-80
2022/05/31 02:55:42;;;;;;;6.83;3.03;;;8.90;99.90;;;;;;4158758;28;20458;-80
2022/05/31 02:57:44;;;;;;;5.00;3.03;;;8.80;99.90;;;;;;4184502;28;20448;-80
2022/05/31 02:59:47;;;;;;;6.33;3.30;;;8.80;99.90;;;;;;4160665;28;20549;-80
2022/05/31 03:01:50;;;;;;;7.70;3.83;;;8.80;99.90;;;;;;4177612;28;20468;-79
2022/05/31 03:03:52;;;;;;;4.47;2.53;;;8.80;99.90;;;;;;4161136;28;20539;-81
2022/05/31 03:05:54;;;;;;;4.53;3.17;;;8.70;99.90;;;;;;4179931;28;20535;-81
2022/05/31 03:07:56;;;;;;;6.63;3.33;;;8.70;99.90;;;;;;4159603;28;20927;-81
2022/05/31 03:09:57;;;;;;;4.33;3.17;;;8.80;99.90;;;;;;4155687;28;20911;-81
2022/05/31 03:12:05;;;;;;;5.93;3.10;;;8.70;99.90;;;;;;4175820;28;20537;-81
2022/05/31 03:14:12;;;;;;;6.30;3.30;;;8.70;99.90;;;;;;4161349;28;20548;-81
2022/05/31 03:16:16;;;;;;;5.73;3.20;;;8.70;99.90;;;;;;4156767;28;21088;-81
2022/05/31 03:18:22;;;;;;;4.60;3.30;;;8.60;99.90;;;;;;4156749;28;20447;-81
2022/05/31 03:20:30;;;;;;;4.47;2.80;;;8.60;99.90;;;;;;4159299;28;20544;-81
2022/05/31 03:22:38;;;;;;;5.30;2.90;;;8.60;99.90;;;;;;4154850;28;20549;-81
2022/05/31 03:24:52;;;;;;;4.63;3.00;;;8.60;99.90;;;;;;4178771;28;20456;-81
2022/05/31 03:26:57;;;;;;;5.20;3.07;;;8.60;99.90;;;;;;4154180;28;20552;-81
2022/05/31 03:28:59;;;;;;;7.30;3.23;;;8.60;99.90;;;;;;4178400;28;21015;-81
2022/05/31 03:31:01;;;;;;;6.03;2.90;;;8.60;99.90;;;;;;4156925;28;20469;-81
2022/05/31 03:33:07;;;;;;;4.63;2.87;;;8.50;99.90;;;;;;4156784;28;20457;-81
2022/05/31 03:35:10;;;;;;;7.90;3.40;;;8.50;99.90;;;;;;4153531;28;20518;-81
2022/05/31 03:37:12;;;;;;;6.40;3.40;;;8.50;99.90;;;;;;4175738;28;20488;-81
2022/05/31 03:39:14;;;;;;;4.33;2.83;;;8.50;99.90;;;;;;4179337;28;20898;-81
2022/05/31 03:41:15;;;;;;;5.97;3.33;;;8.50;99.90;;;;;;4158730;28;20545;-81
2022/05/31 03:43:17;;;;;;;6.27;3.47;;;8.50;99.90;;;;;;4177613;28;20457;-81
2022/05/31 03:45:19;;;;;;;9.27;3.40;;;8.50;99.90;;;;;;4175876;28;20460;-81
2022/05/31 03:47:21;;;;;;;6.07;3.23;;;8.50;99.90;;;;;;4157704;28;20486;-81
2022/05/31 03:49:24;;;;;;;8.53;3.77;;;8.60;99.90;;;;;;4165019;28;20850;-81
2022/05/31 03:51:26;;;;;;;5.30;3.20;;;8.60;99.90;;;;;;4155254;28;20549;-81
2022/05/31 03:53:28;;;;;;;8.83;3.67;;;8.60;99.90;;;;;;4150767;28;20468;-81
2022/05/31 03:55:30;;;;;;;9.53;3.70;;;8.60;99.90;;;;;;4173718;28;20905;-81
2022/05/31 03:57:32;;;;;;;7.63;4.10;;;8.60;99.90;;;;;;4162929;28;20481;-81
2022/05/31 03:59:36;;;;;;;12.10;4.00;;;8.60;99.90;;;;;;4166893;28;20462;-81
2022/05/31 04:01:38;;;;;;;7.23;4.50;;;8.60;99.90;;;;;;4177119;28;20459;-81
2022/05/31 04:03:40;;;;;;;7.30;3.83;;;8.60;99.90;;;;;;4156622;28;20462;-81
2022/05/31 04:05:43;;;;;;;8.67;4.53;;;8.60;99.90;;;;;;4163097;28;20541;-81
2022/05/31 04:07:45;;;;;;;7.47;4.40;;;8.60;99.90;;;;;;4161390;28;20453;-81
2022/05/31 04:09:47;;;;;;;9.17;4.60;;;8.60;99.90;;;;;;4179769;28;20476;-81
2022/05/31 04:11:49;;;;;;;8.13;4.47;;;8.60;99.90;;;;;;4156843;28;20493;-81
2022/05/31 04:13:51;;;;;;;8.60;4.00;;;8.60;99.90;;;;;;4162413;28;20540;-81
2022/05/31 04:16:04;;;;;;;6.67;4.23;;;8.60;99.90;;;;;;4179199;28;20546;-81
2022/05/31 04:18:07;;;;;;;9.33;4.13;;;8.60;99.90;;;;;;4157633;28;20545;-81
2022/05/31 04:20:09;;;;;;;10.67;4.83;;;8.70;99.90;;;;;;4161372;28;20841;-80
2022/05/31 04:22:13;;;;;;;8.37;4.47;;;8.70;99.90;;;;;;4160388;28;20450;-80
2022/05/31 04:24:14;;;;;;;7.13;4.57;;;8.70;99.90;;;;;;4164203;28;20469;-81
2022/05/31 04:26:16;;;;;;;9.30;4.43;;;8.70;99.90;;;;;;4174267;28;20896;-81
2022/05/31 04:28:17;;;;;;;10.27;4.77;;;8.70;99.90;;;;;;4176682;28;20209;-81
2022/05/31 04:30:20;;;;;;;7.27;4.37;;;8.70;99.90;;;;;;4160114;28;20469;-80
2022/05/31 04:32:22;;;;;;;8.60;5.43;;;8.80;99.90;;;;;;4166471;28;20466;-80
2022/05/31 04:34:24;;;;;;;7.77;5.30;;;9.10;99.90;;;;;;4176310;28;20492;-80
2022/05/31 04:36:26;;;;;;;10.03;5.20;;;8.80;99.90;;;;;;4177478;28;21048;-80
2022/05/31 04:38:30;;;;;;;8.87;5.40;;;8.90;99.90;;;;;;4175715;28;20989;-80
2022/05/31 04:40:31;;;;;;;10.40;4.93;;;8.90;99.90;;;;;;4155339;28;20455;-80
2022/05/31 04:42:33;;;;;;;6.37;4.23;;;8.90;99.90;;;;;;4170773;28;20450;-82
2022/05/31 04:44:35;;;;;;;9.20;4.60;;;8.90;99.90;;;;;;4170391;28;20461;-80
2022/05/31 04:46:37;;;;;;;10.87;4.80;;;9.00;99.90;;;;;;4164636;28;20497;-81
2022/05/31 04:48:39;;;;;;;12.17;5.63;;;9.10;99.90;;;;;;4164207;28;20470;-80
2022/05/31 04:50:41;;;;;;;10.67;4.80;;;9.20;99.90;;;;;;4160579;28;20466;-80
2022/05/31 04:52:43;;;;;;;8.83;4.60;;;9.20;99.90;;;;;;4170001;28;20482;-80
2022/05/31 04:54:46;;;;;;;9.27;4.63;;;9.20;99.90;;;;;;4159150;28;20458;-81
2022/05/31 04:56:59;;;;;;;8.53;5.00;;;9.30;99.90;;;;;;4161708;28;20478;-81
2022/05/31 04:59:04;;;;;;;14.43;4.70;;;9.40;99.90;;;;;;4157199;28;20277;-81
2022/05/31 05:01:08;;;;;;;9.10;4.60;;;9.40;99.90;;;;;;4164918;28;20524;-82
2022/05/31 05:03:10;;;;;;;12.50;5.47;;;9.40;99.90;;;;;;4156176;28;20211;-81
2022/05/31 05:05:12;;;;;;;9.97;5.90;;;9.60;99.90;;;;;;4154172;28;20240;-81
2022/05/31 05:07:14;;;;;;;9.90;5.53;;;9.60;99.90;;;;;;4170105;28;20251;-81
2022/05/31 05:09:16;;;;;;;7.60;4.73;;;9.60;99.90;;;;;;4161334;28;20295;-81
2022/05/31 05:11:22;;;;;;;8.93;4.60;;;9.70;99.90;;;;;;4160020;28;20237;-81
2022/05/31 05:13:24;;;;;;;7.87;4.67;;;9.70;99.90;;;;;;4161948;28;20454;-81
2022/05/31 05:15:26;;;;;;;9.50;4.43;;;9.80;99.90;;;;;;4177518;28;20207;-81
2022/05/31 05:17:28;;;;;;;7.37;4.13;;;9.80;99.90;;;;;;4168344;28;20231;-81
2022/05/31 05:19:29;;;;;;;9.23;4.37;;;9.90;99.90;;;;;;4179881;28;20206;-81
2022/05/31 05:21:39;;;;;;;8.40;4.07;;;9.90;99.90;;;;;;4162203;28;20216;-81
2022/05/31 05:23:41;;;;;;;5.40;3.73;;;10.00;99.90;;;;;;4168065;28;20207;-81
2022/05/31 05:25:48;;;;;;;8.67;4.23;;;10.10;99.90;;;;;;4176256;28;20298;-80
2022/05/31 05:27:51;;;;;;;7.63;3.63;;;10.20;99.90;;;;;;4176643;28;20468;-81
2022/05/31 05:32:13;;;;;;;10.00;4.10;;;10.40;99.90;;;;;;4168063;28;20212;-81
2022/05/31 05:34:15;;;;;;;8.47;4.37;;;10.30;99.90;;;;;;4169525;28;20484;-80
2022/05/31 05:36:17;;;;;;;8.13;4.23;;;10.40;99.90;;;;;;4163395;28;20247;-81
2022/05/31 05:38:19;;;;;;;7.40;4.70;;;10.50;99.90;;;;;;4177076;28;20210;-81
2022/05/31 05:40:20;;;;;;;7.73;4.87;;;10.50;99.90;;;;;;4175035;28;20250;-81
2022/05/31 05:42:22;;;;;;;10.77;5.13;;;10.50;99.90;;;;;;4154745;28;20238;-81
2022/05/31 05:44:26;;;;;;;9.67;4.33;;;10.60;99.90;;;;;;4159304;28;20222;-81
2022/05/31 05:46:29;;;;;;;8.00;4.83;;;10.60;99.90;;;;;;4180473;28;20231;-81
2022/05/31 05:48:31;;;;;;;8.70;4.73;;;10.70;99.90;;;;;;4174214;28;20568;-81
2022/05/31 05:50:38;;;;;;;7.13;4.70;;;10.70;99.90;;;;;;4156473;28;20243;-81
2022/05/31 05:52:41;;;;;;;9.80;4.80;;;10.80;99.90;;;;;;4144517;28;20212;-80
2022/05/31 05:54:43;;;;;;;9.60;5.13;;;10.80;99.90;;;;;;4173823;28;20267;-80
2022/05/31 05:56:45;;;;;;;11.03;5.27;;;10.90;99.90;;;;;;4159780;28;20232;-80
2022/05/31 05:58:48;;;;;;;9.17;4.77;;;10.90;99.90;;;;;;4177898;28;20234;-81
2022/05/31 06:00:53;;;;;;;9.00;5.00;;;10.90;99.90;;;;;;4151906;28;20730;-81
2022/05/31 06:03:00;;;;;;;7.53;4.57;;;11.00;99.90;;;;;;4175717;28;20218;-81
2022/05/31 06:05:08;;;;;;;12.50;5.00;;;11.00;99.90;;;;;;4176137;28;20218;-80
2022/05/31 06:07:14;;;;;;;9.27;4.33;;;11.00;99.90;;;;;;4145080;28;20326;-81
2022/05/31 06:09:21;;;;;;;10.60;4.17;;;11.00;99.90;;;;;;4153774;28;20228;-80
2022/05/31 06:11:27;;;;;;;6.37;4.37;;;11.10;99.90;;;;;;4167761;28;20221;-81
2022/05/31 06:13:33;;;;;;;7.60;4.47;;;11.10;99.90;;;;;;4170210;28;20612;-81
2022/05/31 06:15:47;;;;;;;9.53;4.20;;;11.20;99.90;;;;;;4166481;28;20238;-81
2022/05/31 06:17:54;;;;;;;8.03;4.00;;;11.20;99.90;;;;;;4213274;22;20234;-80
2022/05/31 06:19:56;;;;;;;6.63;3.40;;;11.30;99.90;;;;;;4218747;28;20200;-80
2022/05/31 06:21:59;;;;;;;4.57;3.30;;;11.40;99.90;;;;;;4208893;28;20214;-79
2022/05/31 06:24:02;;;;;;;6.33;3.30;;;11.30;99.90;;;;;;4222031;28;20201;-79
2022/05/31 06:26:04;;;;;;;13.57;4.90;;;11.40;99.90;;;;;;4220465;28;20207;-80
2022/05/31 06:28:06;;;;;;;7.27;3.70;;;11.40;99.90;;;;;;4196704;28;20253;-78
2022/05/31 06:30:11;;;;;;;7.87;3.40;;;11.50;99.90;;;;;;4189521;28;20241;-80
2022/05/31 06:32:14;;;;;;;8.90;3.70;;;11.50;99.90;;;;;;4184475;28;20204;-79
2022/05/31 06:34:17;;;;;;;7.67;4.37;;;11.60;99.90;;;;;;4170184;28;20210;-79
2022/05/31 06:36:22;;;;;;;6.13;3.90;;;11.60;99.90;;;;;;4189261;28;20257;-81
2022/05/31 06:38:24;;;;;;;7.73;3.83;;;11.70;99.90;;;;;;4192999;28;20211;-79
2022/05/31 06:40:26;;;;;;;7.43;4.53;;;11.60;99.90;;;;;;4174187;28;20230;-80
2022/05/31 06:42:30;;;;;;;7.07;4.03;;;11.70;99.90;;;;;;4177816;28;20213;-80
2022/05/31 06:44:33;;;;;;;6.07;3.73;;;11.70;99.90;;;;;;4170563;28;20660;-81
2022/05/31 06:46:34;;;;;;;5.47;3.23;;;11.80;99.90;;;;;;4177178;28;20259;-80
2022/05/31 06:48:36;;;;;;;9.37;3.70;;;11.80;99.90;;;;;;4168335;28;20295;-79
2022/05/31 06:50:39;;;;;;;6.00;3.43;;;11.80;99.90;;;;;;4185409;28;20235;-80
2022/05/31 06:57:20;;;;;;;5.20;3.00;;;12.10;99.90;;;;;;4191384;28;20213;-80
2022/05/31 06:59:22;;;;;;;5.80;3.07;;;12.20;99.90;;;;;;4175971;28;20230;-79
2022/05/31 07:01:30;;;;;;;6.50;3.23;;;12.30;99.90;;;;;;4173416;28;20301;-81
2022/05/31 07:03:32;;;;;;;5.67;2.70;;;12.40;99.90;;;;;;4187507;28;20638;-80
2022/05/31 07:05:34;;;;;;;4.90;2.43;;;12.50;99.90;;;;;;4170699;28;20321;-79
2022/05/31 07:07:38;;;;;;;6.53;2.87;;;12.60;99.90;;;;;;4185733;28;20249;-80
2022/05/31 07:09:40;;;;;;;5.07;2.77;;;12.60;99.90;;;;;;4191208;28;20330;-79
2022/05/31 07:11:41;;;;;;;4.03;2.70;;;12.70;99.90;;;;;;4174625;28;20275;-79
2022/05/31 07:13:43;;;;;;;4.17;2.50;;;12.80;99.90;;;;;;4194279;28;20216;-80
2022/05/31 07:15:45;;;;;;;6.47;2.40;;;12.90;99.90;;;;;;4192071;28;20412;-81
2022/05/31 07:17:47;;;;;;;6.93;2.70;;;12.90;99.90;;;;;;4191355;28;20236;-80
2022/05/31 07:19:49;;;;;;;5.47;2.67;;;13.00;99.90;;;;;;4188739;28;20206;-79
2022/05/31 07:21:51;;;;;;;5.53;2.83;;;13.10;99.90;;;;;;4198483;28;20209;-79
2022/05/31 07:23:54;;;;;;;6.33;2.70;;;13.10;99.90;;;;;;4179825;28;20570;-81
2022/05/31 07:25:57;;;;;;;7.70;3.60;;;13.20;99.90;;;;;;4171636;28;20281;-80
2022/05/31 07:28:00;;;;;;;9.33;3.00;;;13.20;99.90;;;;;;4189575;28;20309;-80
2022/05/31 07:30:02;;;;;;;5.20;3.00;;;13.30;99.90;;;;;;4169944;28;20222;-80
2022/05/31 07:32:04;;;;;;;4.10;2.60;;;13.30;99.90;;;;;;4177329;28;20771;-80
2022/05/31 07:34:06;;;;;;;7.33;2.77;;;13.40;99.90;;;;;;4181397;28;20610;-80
2022/05/31 07:36:09;;;;;;;5.43;2.83;;;13.40;99.90;;;;;;4170713;28;20206;-79
2022/05/31 07:38:10;;;;;;;7.83;3.00;;;13.50;99.90;;;;;;4171698;28;20595;-80
2022/05/31 07:40:14;;;;;;;6.30;3.20;;;13.60;99.90;;;;;;4188884;28;20267;-80
2022/05/31 07:42:16;;;;;;;6.13;3.30;;;13.50;99.90;;;;;;4187937;28;20558;-80
2022/05/31 07:44:18;;;;;;;5.43;3.10;;;13.50;99.90;;;;;;4172529;28;20203;-81
2022/05/31 07:46:20;;;;;;;5.40;2.40;;;13.60;99.90;;;;;;4191794;28;20218;-81
2022/05/31 07:48:21;;;;;;;6.07;2.83;;;13.60;99.90;;;;;;4182972;28;20242;-79
2022/05/31 07:50:23;;;;;;;5.60;2.47;;;13.60;99.90;;;;;;4186782;28;20302;-78
2022/05/31 07:52:26;;;;;;;6.37;2.90;;;13.70;99.90;;;;;;4186197;28;20214;-79
2022/05/31 07:54:31;;;;;;;5.87;2.73;;;13.70;99.90;;;;;;4189538;28;20301;-79
2022/05/31 07:56:35;;;;;;;4.50;2.47;;;13.70;99.90;;;;;;4206027;28;20213;-79
2022/05/31 07:58:39;;;;;;;6.80;2.60;;;13.80;99.90;;;;;;4203362;28;20510;-80
2022/05/31 08:00:41;;;;;;;4.17;2.70;;;13.90;99.90;;;;;;4187822;28;20207;-78
2022/05/31 08:02:43;;;;;;;5.30;3.47;;;13.80;99.90;;;;;;4187910;28;20202;-79
2022/05/31 08:04:45;;;;;;;5.63;3.27;;;13.80;99.90;;;;;;4192755;28;20217;-78
2022/05/31 08:06:47;;;;;;;6.20;3.10;;;13.90;99.90;;;;;;4179282;28;20237;-79
2022/05/31 08:08:50;;;;;;;5.23;3.00;;;14.00;99.90;;;;;;4178326;28;20214;-80
2022/05/31 08:10:52;;;;;;;7.57;2.43;;;14.00;99.90;;;;;;4189818;28;20233;-80
2022/05/31 08:12:55;;;;;;;5.90;2.40;;;14.10;99.90;;;;;;4195027;28;20214;-80
2022/05/31 08:14:57;;;;;;;4.37;2.50;;;14.10;99.90;;;;;;4171150;28;20603;-81
2022/05/31 08:16:59;;;;;;;4.63;2.50;;;14.30;99.90;;;;;;4178872;28;20658;-79
2022/05/31 08:19:01;;;;;;;3.97;2.60;;;14.20;99.90;;;;;;4186734;28;20218;-81
2022/05/31 08:21:06;;;;;;;3.17;2.33;;;14.20;99.90;;;;;;4171203;28;20220;-81
2022/05/31 08:23:08;;;;;;;4.23;2.63;;;14.40;99.90;;;;;;4187334;28;20261;-81
2022/05/31 08:25:11;;;;;;;3.37;2.53;;;14.30;99.90;;;;;;4169163;28;20198;-80
2022/05/31 08:27:13;;;;;;;5.47;2.47;;;14.30;99.90;;;;;;4174395;28;20721;-80
2022/05/31 08:29:17;;;;;;;6.03;2.87;;;14.40;99.90;;;;;;4175637;28;20674;-81
2022/05/31 08:31:24;;;;;;;4.87;2.90;;;14.40;99.90;;;;;;4174069;28;20904;-82
2022/05/31 08:33:28;;;;;;;5.17;2.80;;;14.50;99.90;;;;;;4189998;28;20709;-82
2022/05/31 08:35:30;;;;;;;5.40;2.60;;;14.60;99.90;;;;;;4191046;28;20242;-80
2022/05/31 08:37:32;;;;;;;3.50;2.30;;;14.60;99.90;;;;;;4174932;28;20265;-80
2022/05/31 08:39:33;;;;;;;5.77;2.70;;;14.70;99.90;;;;;;4170518;28;20220;-80
2022/05/31 08:41:44;;;;;;;7.10;2.87;;;14.70;99.90;;;;;;4169127;28;20210;-81
2022/05/31 08:43:59;;;;;;;5.83;2.30;;;14.80;99.90;;;;;;4187947;28;20208;-81
2022/05/31 08:46:08;;;;;;;3.70;2.10;;;14.80;99.90;;;;;;4184538;28;20223;-80
2022/05/31 08:48:21;;;;;;;5.70;2.27;;;14.90;99.90;;;;;;4189439;28;20698;-80
2022/05/31 08:53:01;;;;;;;3.20;2.20;;;15.00;99.90;;;;;;4175347;28;20212;-80
2022/05/31 08:57:40;;;;;;;6.07;2.73;;;15.10;99.90;;;;;;4169661;28;20232;-81
2022/05/31 08:59:50;;;;;;;3.83;2.30;;;15.10;98.20;;;;;;4190606;28;20280;-82
2022/05/31 09:01:57;;;;;;;5.83;2.43;;;15.20;97.40;;;;;;4175595;28;20252;-81
2022/05/31 09:04:07;;;;;;;4.33;2.20;;;15.30;98.10;;;;;;4194561;28;20209;-80
2022/05/31 09:06:11;;;;;;;6.20;2.20;;;15.30;99.00;;;;;;4186771;28;20207;-80
2022/05/31 09:08:18;;;;;;;3.47;2.13;;;15.40;99.90;;;;;;4173853;28;20221;-80
2022/05/31 09:10:27;;;;;;;3.80;2.10;;;15.50;99.90;;;;;;4186073;28;20216;-80
2022/05/31 09:12:38;;;;;;;8.63;2.40;;;15.50;99.90;;;;;;4166981;28;20215;-81
2022/05/31 09:14:47;;;;;;;4.10;2.07;;;15.60;99.00;;;;;;4178557;28;20238;-81
2022/05/31 09:16:58;;;;;;;5.87;2.00;;;15.70;96.50;;;;;;4185371;28;20306;-80
2022/05/31 09:19:03;;;;;;;3.70;2.23;;;15.70;97.30;;;;;;4190934;28;20269;-80
2022/05/31 09:21:12;;;;;;;4.87;1.93;;;15.80;96.90;;;;;;4169474;28;20289;-81
2022/05/31 09:23:20;;;;;;;3.67;1.90;;;15.80;97.40;;;;;;4173167;28;20305;-80
2022/05/31 09:25:21;;;;;;;4.47;1.90;;;15.90;96.00;;;;;;4178184;28;20219;-81
2022/05/31 09:27:41;;;;;;;2.77;1.90;;;16.00;94.50;;;;;;4193933;28;20234;-80
2022/05/31 09:30:05;;;;;;;5.77;2.10;;;16.00;94.10;;;;;;4196362;28;20203;-81
2022/05/31 09:32:18;;;;;;;3.47;1.97;;;16.20;95.30;;;;;;4187237;28;20303;-80
2022/05/31 09:34:36;;;;;;;3.03;1.80;;;16.30;94.40;;;;;;4178831;28;20217;-80
2022/05/31 09:36:43;;;;;;;4.03;1.83;;;16.40;93.70;;;;;;4187067;28;20320;-80
2022/05/31 09:39:11;;;;;;;4.67;1.97;;;16.50;89.50;;;;;;4168396;28;20216;-81
2022/05/31 09:41:19;;;;;;;6.20;1.73;;;16.50;82.60;;;;;;4195348;28;20210;-79
2022/05/31 09:43:30;;;;;;;2.43;1.70;;;16.60;78.50;;;;;;4177321;28;20237;-80
2022/05/31 09:45:35;;;;;;;3.03;1.60;;;16.70;81.90;;;;;;4191294;28;20244;-80
2022/05/31 09:47:39;;;;;;;2.33;1.77;;;16.70;83.30;;;;;;4173736;28;20645;-80
2022/05/31 09:49:43;;;;;;;2.33;1.50;;;16.80;80.90;;;;;;4172629;28;20295;-81
2022/05/31 09:51:45;;;;;;;4.50;1.70;;;16.90;77.10;;;;;;4170008;28;20701;-80
2022/05/31 09:58:38;;;;;;;2.80;1.50;;;17.20;66.70;;;;;;4171294;28;20232;-81
2022/05/31 10:00:59;;;;;;;3.40;1.60;;;17.30;64.00;;;;;;4191563;28;20211;-80
2022/05/31 10:03:10;;;;;;;3.03;1.93;;;17.40;63.10;;;;;;4176536;28;20237;-80
2022/05/31 10:05:17;;;;;;;3.60;1.73;;;17.50;59.90;;;;;;4191247;28;20606;-81
2022/05/31 10:07:38;;;;;;;1.97;1.60;;;17.60;58.40;;;;;;4175787;28;20241;-80
2022/05/31 10:09:43;;;;;;;2.70;1.80;;;17.70;57.90;;;;;;4192002;28;20567;-82
2022/05/31 10:11:45;;;;;;;2.27;1.50;;;17.80;56.90;;;;;;4187336;28;20253;-80
2022/05/31 10:14:00;;;;;;;6.87;2.10;;;17.80;57.50;;;;;;4174368;28;20261;-81
2022/05/31 10:16:11;;;;;;;3.87;1.70;;;17.90;56.00;;;;;;4173727;28;20297;-79
2022/05/31 10:18:27;;;;;;;4.93;1.93;;;18.00;55.40;;;;;;4190282;28;20210;-79
2022/05/31 10:20:29;;;;;;;2.47;1.50;;;18.10;55.90;;;;;;4170879;28;20666;-79
2022/05/31 10:22:30;;;;;;;4.00;1.50;;;18.30;54.20;;;;;;4173454;28;20521;-79
2022/05/31 10:24:32;;;;;;;1.80;1.17;;;18.30;50.30;;;;;;4171381;28;20639;-78
2022/05/31 10:26:38;;;;;;;1.93;1.27;;;18.30;48.50;;;;;;4177895;28;20662;-79
2022/05/31 10:28:43;;;;;;;3.43;1.20;;;18.40;47.00;;;;;;4171541;28;20670;-78
2022/05/31 10:30:45;;;;;;;2.83;1.17;;;18.40;47.10;;;;;;4186622;28;20223;-78
2022/05/31 10:32:51;;;;;;;2.87;1.40;;;18.60;47.60;;;;;;4167830;28;20215;-78
2022/05/31 10:35:13;;;;;;;3.20;1.20;;;18.70;48.10;;;;;;4188810;28;20207;-79
2022/05/31 10:37:29;;;;;;;4.63;1.37;;;19.00;48.30;;;;;;4185315;28;20502;-79
2022/05/31 10:39:36;;;;;;;4.13;2.40;;;19.10;48.00;;;;;;4195423;28;20212;-79
2022/05/31 10:41:40;;;;;;;2.63;1.60;;;19.20;47.80;;;;;;4170342;28;20235;-78
2022/05/31 10:43:45;;;;;;;4.87;1.60;;;19.40;48.40;;;;;;4177159;28;20226;-79
2022/05/31 10:45:47;;;;;;;2.63;1.40;;;19.60;48.20;;;;;;4191640;28;20393;-79
2022/05/31 10:47:49;;;;;;;3.53;1.50;;;19.80;48.20;;;;;;4188034;28;20224;-80
2022/05/31 10:49:51;;;;;;;1.50;1.20;;;19.90;48.50;;;;;;4181290;28;20213;-78
2022/05/31 10:52:03;;;;;;;4.43;1.50;;;20.00;48.60;;;;;;4180393;28;20257;-77
2022/05/31 10:54:24;;;;;;;5.83;1.60;;;20.20;46.90;;;;;;4194705;28;20212;-78
2022/05/31 10:56:33;;;;;;;2.70;1.30;;;20.30;45.10;;;;;;4199769;28;20197;-78
2022/05/31 10:58:48;;;;;;;2.40;1.00;;;20.50;43.80;;;;;;4181755;28;20202;-78
2022/05/31 11:00:55;;;;;;;2.63;0.97;;;20.50;43.10;;;;;;4172323;28;20671;-77
2022/05/31 11:03:22;;;;;;;3.43;1.10;;;20.50;42.80;;;;;;4189113;28;20642;-79
2022/05/31 11:05:33;;;;;;;2.00;1.00;;;20.60;43.10;;;;;;4172188;28;20479;-79
2022/05/31 11:11:27;;;;;;;4.13;1.60;;;20.70;43.50;;;;;;4177390;28;20781;-79
2022/05/31 11:13:00;;;;;;;3.67;1.23;;;21.10;42.80;;;;;;4178580;28;20275;-77
2022/05/31 11:15:11;;;;;;;2.27;1.27;;;21.40;42.10;;;;;;4192313;28;20210;-79
2022/05/31 11:17:34;;;;;;;4.83;2.00;;;21.70;41.60;;;;;;4194474;28;20240;-78
2022/05/31 11:19:48;;;;;;;4.23;2.30;;;21.90;40.60;;;;;;4183198;28;20222;-78
2022/05/31 11:22:12;;;;;;;2.00;1.43;;;22.20;40.00;;;;;;4177735;28;20204;-78
2022/05/31 11:24:32;;;;;;;1.83;1.20;;;22.40;39.20;;;;;;4195189;28;20207;-77
2022/05/31 11:26:49;;;;;;;6.80;1.40;;;22.80;38.50;;;;;;4196645;28;20256;-79
2022/05/31 11:29:03;;;;;;;2.87;1.27;;;23.10;37.70;;;;;;4184000;28;20219;-79
2022/05/31 11:31:30;;;;;;;3.70;1.23;;;23.40;36.60;;;;;;4180090;28;20249;-79
2022/05/31 11:33:43;;;;;;;1.80;1.00;;;23.60;36.00;;;;;;4178732;28;20942;-78